Погода Флорианона неделю

Пиауи, Бразилия

25 - 31 июля
  • 25июля
    Сегодня
    +22°
    +34°
    Практически безоблачно
    ВремяПогодаТемператураВлажностьДавлениеВетер, м/сВероятность осадков
    00:00Ясно и безоблачно+24°C55 %754 мм2.1 м/с5 %
    03:00Ясно и безоблачно+23°C59 %753 мм3.6 м/с5 %
    06:00Ясно и безоблачно+22°C72 %754 мм3.0 м/с5 %
    09:00Ясно и безоблачно+26°C54 %755 мм3.6 м/с5 %
    12:00Ясно и безоблачно+31°C37 %754 мм5.2 м/с5 %
    15:00Практически безоблачно+33°C32 %751 мм3.0 м/с5 %
    18:00Ясно и безоблачно+30°C35 %751 мм1.9 м/с5 %
    21:00Ясно и безоблачно+28°C40 %752 мм2.7 м/с5 %
  • 26июля
    Пятница
    +23°
    +35°
    Облачно с прояснениями
    ВремяПогодаТемператураВлажностьДавлениеВетер, м/сВероятность осадков
    00:00Ясно и безоблачно+25°C49 %752 мм2.3 м/с5 %
    03:00Ясно и безоблачно+23°C53 %751 мм3.0 м/с5 %
    06:00Ясно и безоблачно+22°C61 %752 мм4.0 м/с5 %
    09:00Практически безоблачно+27°C54 %753 мм3.4 м/с5 %
    12:00Небольшая облачность+32°C33 %752 мм4.5 м/с5 %
    15:00Облачно с прояснениями+35°C26 %749 мм2.6 м/с5 %
    18:00Ясно и безоблачно+31°C29 %749 мм2.1 м/с5 %
    21:00Ясно и безоблачно+28°C34 %751 мм2.7 м/с5 %
  • 27июля
    Суббота
    +23°
    +35°
    Небольшая облачность
    ВремяПогодаТемператураВлажностьДавлениеВетер, м/сВероятность осадков
    00:00Небольшая облачность+26°C37 %752 мм3.1 м/с5 %
    03:00Небольшая облачность+25°C44 %751 мм3.3 м/с5 %
    06:00Небольшая облачность+23°C53 %752 мм3.7 м/с5 %
    09:00Небольшая облачность+28°C47 %754 мм3.5 м/с5 %
    12:00Небольшая облачность+33°C29 %752 мм5.1 м/с5 %
    15:00Небольшая облачность+35°C24 %750 мм2.8 м/с5 %
    18:00Ясно и безоблачно+32°C26 %751 мм2.2 м/с5 %
    21:00Ясно и безоблачно+28°C32 %752 мм3.0 м/с5 %
  • 28июля
    Воскресенье
    +23°
    +36°
    Практически безоблачно
    ВремяПогодаТемператураВлажностьДавлениеВетер, м/сВероятность осадков
    00:00Ясно и безоблачно+26°C39 %752 мм3.3 м/с5 %
    03:00Ясно и безоблачно+25°C45 %752 мм3.5 м/с5 %
    06:00Ясно и безоблачно+24°C57 %753 мм4.4 м/с5 %
    09:00Ясно и безоблачно+28°C52 %754 мм3.4 м/с5 %
    12:00Практически безоблачно+33°C34 %753 мм5.0 м/с5 %
    15:00Практически безоблачно+35°C29 %751 мм2.9 м/с5 %
    18:00Ясно и безоблачно+33°C30 %751 мм3.0 м/с5 %
    21:00Ясно и безоблачно+29°C35 %752 мм2.7 м/с5 %
  • 29июля
    Понедельник
    +23°
    +36°
    Ясно и безоблачно
    ВремяПогодаТемператураВлажностьДавлениеВетер, м/сВероятность осадков
    00:00Ясно и безоблачно+27°C39 %752 мм3.2 м/с4 %
    03:00Ясно и безоблачно+25°C44 %752 мм3.2 м/с5 %
    06:00Ясно и безоблачно+24°C48 %753 мм3.5 м/с6 %
    09:00Ясно и безоблачно+28°C42 %754 мм3.4 м/с7 %
    12:00Ясно и безоблачно+33°C31 %753 мм4.7 м/с5 %
    15:00Ясно и безоблачно+35°C25 %751 мм2.6 м/с5 %
    18:00Ясно и безоблачно+32°C28 %751 мм2.0 м/с5 %
    21:00Ясно и безоблачно+28°C32 %752 мм2.3 м/с3 %
Мы используем cookies
Соглашаюсь